createdAt,value
2018-12-22T00:00:38.565Z,10.02
2018-12-22T00:01:38.556Z,9.96
2018-12-22T00:02:38.557Z,9.93
2018-12-22T00:03:38.547Z,9.97
2018-12-22T00:04:38.543Z,9.99
2018-12-22T00:05:38.545Z,9.96
2018-12-22T00:06:38.530Z,9.96
2018-12-22T00:07:38.539Z,9.99
2018-12-22T00:08:38.520Z,9.90
2018-12-22T00:09:38.538Z,9.89
2018-12-22T00:10:38.520Z,9.90
2018-12-22T00:11:38.502Z,9.89
2018-12-22T00:12:38.497Z,9.89
2018-12-22T00:13:38.488Z,9.83
2018-12-22T00:14:38.493Z,9.90
2018-12-22T00:15:38.477Z,9.89
2018-12-22T00:16:38.477Z,9.96
2018-12-22T00:17:38.478Z,9.89
2018-12-22T00:18:38.473Z,9.89
2018-12-22T00:19:38.471Z,9.93
2018-12-22T00:20:38.453Z,9.94
2018-12-22T00:21:38.443Z,9.99
2018-12-22T00:22:38.446Z,9.97
2018-12-22T00:23:38.433Z,9.93
2018-12-22T00:24:38.429Z,9.94
2018-12-22T00:25:38.422Z,9.93
2018-12-22T00:26:38.425Z,9.91
2018-12-22T00:27:38.813Z,9.99
2018-12-22T00:28:38.423Z,9.94
2018-12-22T00:29:38.409Z,9.97
2018-12-22T00:30:38.394Z,9.97
2018-12-22T00:31:38.386Z,9.87
2018-12-22T00:32:38.388Z,9.84
2018-12-22T00:33:38.375Z,9.93
2018-12-22T00:34:38.371Z,9.87
2018-12-22T00:35:38.373Z,9.89
2018-12-22T00:36:38.361Z,9.86
2018-12-22T00:37:38.356Z,9.87
2018-12-22T00:38:38.348Z,9.81
2018-12-22T00:39:38.340Z,9.84
2018-12-22T00:40:38.338Z,9.87
2018-12-22T00:41:38.329Z,9.84
2018-12-22T00:42:38.343Z,9.83
2018-12-22T00:43:38.325Z,9.86
2018-12-22T00:44:38.336Z,9.74
2018-12-22T00:45:38.304Z,9.89
2018-12-22T00:46:38.302Z,9.76
2018-12-22T00:47:38.300Z,9.72
2018-12-22T00:48:38.293Z,9.75
2018-12-22T00:49:38.283Z,9.76
2018-12-22T00:50:38.278Z,9.71
2018-12-22T00:51:38.281Z,9.76
2018-12-22T00:52:38.284Z,9.68
2018-12-22T00:53:38.259Z,9.75
2018-12-22T00:54:38.260Z,9.76
2018-12-22T00:55:38.249Z,9.69
2018-12-22T00:56:38.497Z,9.75
2018-12-22T00:57:38.235Z,9.72
2018-12-22T00:58:38.231Z,9.78
2018-12-22T00:59:38.224Z,9.78
2018-12-22T01:00:38.230Z,9.76
2018-12-22T01:01:38.230Z,9.76
2018-12-22T01:02:38.209Z,9.69
2018-12-22T01:03:38.220Z,9.78
2018-12-22T01:04:38.197Z,9.71
2018-12-22T01:05:38.189Z,9.74
2018-12-22T01:06:38.184Z,9.74
2018-12-22T01:07:38.178Z,9.78
2018-12-22T01:08:38.174Z,9.72
2018-12-22T01:09:38.166Z,9.78
2018-12-22T01:10:38.161Z,9.78
2018-12-22T01:11:38.152Z,9.78
2018-12-22T01:12:38.150Z,9.84
2018-12-22T01:13:38.142Z,9.84
2018-12-22T01:14:38.138Z,9.79
2018-12-22T01:15:38.133Z,9.78
2018-12-22T01:16:38.133Z,9.76
2018-12-22T01:17:38.123Z,9.75
2018-12-22T01:18:38.124Z,9.83
2018-12-22T01:19:38.118Z,9.75
2018-12-22T01:20:38.123Z,9.84
2018-12-22T01:21:38.094Z,9.75
2018-12-22T01:22:38.092Z,9.76
2018-12-22T01:23:38.090Z,9.72
2018-12-22T01:24:38.091Z,9.84
2018-12-22T01:25:38.087Z,9.78
2018-12-22T01:26:38.089Z,9.76
2018-12-22T01:27:38.312Z,9.78
2018-12-22T01:28:39.479Z,9.79
2018-12-22T01:29:38.064Z,9.78
2018-12-22T01:30:38.047Z,9.75
2018-12-22T01:31:38.038Z,9.79
2018-12-22T01:32:38.036Z,9.84
2018-12-22T01:33:38.026Z,9.81
2018-12-22T01:34:38.026Z,9.79
2018-12-22T01:35:38.029Z,9.84
2018-12-22T01:36:38.032Z,9.75
2018-12-22T01:37:38.015Z,9.79
2018-12-22T01:38:38.005Z,9.71
2018-12-22T01:39:37.993Z,9.76
2018-12-22T01:40:37.990Z,9.75
2018-12-22T01:41:37.991Z,9.81
2018-12-22T01:42:37.979Z,9.83
2018-12-22T01:43:37.970Z,9.83
2018-12-22T01:44:37.971Z,9.79
2018-12-22T01:45:37.967Z,9.83
2018-12-22T01:46:37.956Z,9.87
2018-12-22T01:47:37.954Z,9.87
2018-12-22T01:48:37.949Z,9.87
2018-12-22T01:49:37.938Z,9.89
2018-12-22T01:50:37.930Z,9.74
2018-12-22T01:51:37.927Z,9.78
2018-12-22T01:52:37.922Z,9.79
2018-12-22T01:53:37.922Z,9.76
2018-12-22T01:54:37.905Z,9.89
2018-12-22T01:55:37.901Z,9.79
2018-12-22T01:56:37.895Z,9.86
2018-12-22T01:57:37.895Z,9.83
2018-12-22T01:58:37.881Z,9.79
2018-12-22T01:59:37.878Z,9.81
2018-12-22T02:00:37.871Z,9.83
2018-12-22T02:01:37.866Z,9.76
2018-12-22T02:02:37.871Z,9.84
2018-12-22T02:03:37.854Z,9.81
2018-12-22T02:04:37.848Z,9.86
2018-12-22T02:05:37.862Z,9.90
2018-12-22T02:06:37.836Z,9.87
2018-12-22T02:07:37.836Z,9.87
2018-12-22T02:08:37.823Z,9.99
2018-12-22T02:09:37.821Z,9.97
2018-12-22T02:10:37.812Z,9.93
2018-12-22T02:11:37.808Z,9.96
2018-12-22T02:12:37.801Z,10.01
2018-12-22T02:13:37.796Z,9.97
2018-12-22T02:14:37.791Z,10.02
2018-12-22T02:15:37.784Z,10.01
2018-12-22T02:16:37.777Z,9.93
2018-12-22T02:17:37.775Z,9.94
2018-12-22T02:18:37.765Z,9.99
2018-12-22T02:19:37.763Z,9.99
2018-12-22T02:20:37.757Z,9.99
2018-12-22T02:21:37.750Z,10.04
2018-12-22T02:22:37.741Z,9.97
2018-12-22T02:23:37.738Z,10.02
2018-12-22T02:24:37.733Z,10.04
2018-12-22T02:25:37.727Z,10.02
2018-12-22T02:26:37.719Z,10.12
2018-12-22T02:27:37.715Z,10.14
2018-12-22T02:28:37.707Z,10.05
2018-12-22T02:29:37.706Z,10.02
2018-12-22T02:30:37.699Z,10.14
2018-12-22T02:31:37.692Z,10.11
2018-12-22T02:32:37.935Z,10.02
2018-12-22T02:33:37.682Z,10.11
2018-12-22T02:34:37.673Z,10.07
2018-12-22T02:35:37.671Z,10.12
2018-12-22T02:36:37.664Z,10.12
2018-12-22T02:37:37.659Z,10.18
2018-12-22T02:38:37.659Z,10.15
2018-12-22T02:39:37.648Z,10.23
2018-12-22T02:40:37.648Z,10.18
2018-12-22T02:41:37.637Z,10.15
2018-12-22T02:42:37.631Z,10.09
2018-12-22T02:43:37.627Z,10.22
2018-12-22T02:44:37.619Z,10.12
2018-12-22T02:45:37.619Z,10.25
2018-12-22T02:46:37.608Z,10.23
2018-12-22T02:47:37.605Z,10.23
2018-12-22T02:48:37.597Z,10.25
2018-12-22T02:49:37.593Z,10.29
2018-12-22T02:50:37.586Z,10.25
2018-12-22T02:51:37.583Z,10.26
2018-12-22T02:52:37.575Z,10.23
2018-12-22T02:53:37.570Z,10.27
2018-12-22T02:54:37.562Z,10.32
2018-12-22T02:55:37.559Z,10.27
2018-12-22T02:56:37.552Z,10.29
2018-12-22T02:57:37.547Z,10.29
2018-12-22T02:58:37.539Z,10.23
2018-12-22T02:59:37.536Z,10.32
2018-12-22T03:00:37.529Z,10.29
2018-12-22T03:01:37.525Z,10.33
2018-12-22T03:02:37.768Z,10.33
2018-12-22T03:03:37.514Z,10.32
2018-12-22T03:04:37.505Z,10.34
2018-12-22T03:05:37.501Z,10.32
2018-12-22T03:06:37.493Z,10.33
2018-12-22T03:07:37.489Z,10.32
2018-12-22T03:08:37.485Z,10.42
2018-12-22T03:09:37.479Z,10.27
2018-12-22T03:10:37.471Z,10.34
2018-12-22T03:11:37.472Z,10.34
2018-12-22T03:12:37.459Z,10.40
2018-12-22T03:13:37.465Z,10.38
2018-12-22T03:14:37.446Z,10.42
2018-12-22T03:15:37.445Z,10.40
2018-12-22T03:16:37.435Z,10.33
2018-12-22T03:17:37.431Z,10.30
2018-12-22T03:18:37.427Z,10.40
2018-12-22T03:19:37.420Z,10.33
2018-12-22T03:20:37.414Z,10.38
2018-12-22T03:21:37.409Z,10.34
2018-12-22T03:22:37.401Z,10.27
2018-12-22T03:23:37.397Z,10.34
2018-12-22T03:24:37.390Z,10.36
2018-12-22T03:25:37.384Z,10.34
2018-12-22T03:26:37.382Z,10.36
2018-12-22T03:27:37.373Z,10.40
2018-12-22T03:28:37.366Z,10.41
2018-12-22T03:29:37.362Z,10.40
2018-12-22T03:30:37.354Z,10.33
2018-12-22T03:31:37.350Z,10.32
2018-12-22T03:32:37.594Z,10.38
2018-12-22T03:33:37.336Z,10.40
2018-12-22T03:34:37.331Z,10.40
2018-12-22T03:35:37.325Z,10.27
2018-12-22T03:36:37.317Z,10.32
2018-12-22T03:37:37.312Z,10.30
2018-12-22T03:38:37.305Z,10.34
2018-12-22T03:39:37.303Z,10.36
2018-12-22T03:40:37.295Z,10.38
2018-12-22T03:41:37.289Z,10.38
2018-12-22T03:42:37.281Z,10.33
2018-12-22T03:43:37.278Z,10.33
2018-12-22T03:44:37.271Z,10.33
2018-12-22T03:45:37.263Z,10.45
2018-12-22T03:46:37.256Z,10.40
2018-12-22T03:47:37.254Z,10.42
2018-12-22T03:48:37.243Z,10.36
2018-12-22T03:49:37.239Z,10.40
2018-12-22T03:50:37.232Z,10.36
2018-12-22T03:51:37.231Z,10.42
2018-12-22T03:52:37.220Z,10.41
2018-12-22T03:53:37.214Z,10.38
2018-12-22T03:54:37.206Z,10.40
2018-12-22T03:55:37.202Z,10.33
2018-12-22T03:56:37.196Z,10.38
2018-12-22T03:57:37.196Z,10.40
2018-12-22T03:58:37.184Z,10.34
2018-12-22T03:59:37.178Z,10.36
2018-12-22T04:00:37.171Z,10.30
2018-12-22T04:01:37.190Z,10.33
2018-12-22T04:02:37.426Z,10.29
2018-12-22T04:03:37.154Z,10.25
2018-12-22T04:04:37.148Z,10.27
2018-12-22T04:05:37.141Z,10.22
2018-12-22T04:06:37.134Z,10.17
2018-12-22T04:07:37.129Z,10.18
2018-12-22T04:08:37.121Z,10.23
2018-12-22T04:09:37.120Z,10.09
2018-12-22T04:10:37.121Z,10.08
2018-12-22T04:11:37.109Z,10.12
2018-12-22T04:12:37.097Z,10.17
2018-12-22T04:13:37.093Z,10.14
2018-12-22T04:14:37.083Z,10.05
2018-12-22T04:15:37.079Z,10.02
2018-12-22T04:16:37.072Z,9.97
2018-12-22T04:17:37.066Z,10.04
2018-12-22T04:18:37.058Z,10.07
2018-12-22T04:19:37.054Z,9.97
2018-12-22T04:20:37.055Z,10.05
2018-12-22T04:21:37.041Z,9.99
2018-12-22T04:22:37.033Z,10.04
2018-12-22T04:23:37.027Z,9.96
2018-12-22T04:24:37.020Z,10.02
2018-12-22T04:25:37.021Z,9.97
2018-12-22T04:26:37.010Z,10.01
2018-12-22T04:27:37.002Z,9.93
2018-12-22T04:28:36.994Z,9.94
2018-12-22T04:29:36.988Z,9.91
2018-12-22T04:30:36.980Z,9.89
2018-12-22T04:31:36.979Z,9.91
2018-12-22T04:32:36.970Z,9.87
2018-12-22T04:33:36.962Z,9.86
2018-12-22T04:34:36.955Z,9.84
2018-12-22T04:35:36.951Z,9.89
2018-12-22T04:36:36.942Z,9.83
2018-12-22T04:37:36.937Z,9.74
2018-12-22T04:38:36.929Z,9.81
2018-12-22T04:39:36.937Z,9.79
2018-12-22T04:40:36.918Z,9.86
2018-12-22T04:41:36.911Z,9.81
2018-12-22T04:42:36.903Z,9.86
2018-12-22T04:43:36.900Z,9.78
2018-12-22T04:44:36.891Z,9.84
2018-12-22T04:45:36.886Z,9.86
2018-12-22T04:46:36.877Z,9.78
2018-12-22T04:47:36.874Z,9.75
2018-12-22T04:48:36.866Z,9.71
2018-12-22T04:49:36.860Z,9.76
2018-12-22T04:50:36.851Z,9.76
2018-12-22T04:51:36.846Z,9.78
2018-12-22T04:52:36.838Z,9.69
2018-12-22T04:53:36.833Z,9.71
2018-12-22T04:54:36.824Z,9.79
2018-12-22T04:55:36.820Z,9.76
2018-12-22T04:56:36.814Z,9.78
2018-12-22T04:57:36.820Z,9.72
2018-12-22T04:58:36.797Z,9.68
2018-12-22T04:59:43.002Z,9.71
2018-12-22T05:00:36.785Z,9.71
2018-12-22T05:01:36.779Z,9.75
2018-12-22T05:02:36.772Z,9.75
2018-12-22T05:03:37.016Z,9.72
2018-12-22T05:04:36.758Z,9.74
2018-12-22T05:05:36.753Z,9.75
2018-12-22T05:06:36.746Z,9.71
2018-12-22T05:07:36.741Z,9.71
2018-12-22T05:08:36.731Z,9.75
2018-12-22T05:09:36.727Z,9.68
2018-12-22T05:10:36.717Z,9.60
2018-12-22T05:11:36.714Z,9.68
2018-12-22T05:12:36.704Z,9.71
2018-12-22T05:13:36.700Z,9.75
2018-12-22T05:14:36.693Z,9.71
2018-12-22T05:15:36.691Z,9.74
2018-12-22T05:16:36.686Z,9.72
2018-12-22T05:17:36.672Z,9.74
2018-12-22T05:18:36.664Z,9.72
2018-12-22T05:19:36.661Z,9.72
2018-12-22T05:20:36.651Z,9.65
2018-12-22T05:21:36.646Z,9.68
2018-12-22T05:22:36.641Z,9.65
2018-12-22T05:23:36.634Z,9.61
2018-12-22T05:24:36.624Z,9.61
2018-12-22T05:25:36.620Z,9.64
2018-12-22T05:26:36.610Z,9.64
2018-12-22T05:27:36.607Z,9.66
2018-12-22T05:28:36.598Z,9.61
2018-12-22T05:29:36.593Z,9.61
2018-12-22T05:30:36.584Z,9.76
2018-12-22T05:31:36.582Z,9.65
2018-12-22T05:32:36.571Z,9.60
2018-12-22T05:33:36.818Z,9.76
2018-12-22T05:34:36.557Z,9.60
2018-12-22T05:35:36.557Z,9.65
2018-12-22T05:36:36.545Z,9.72
2018-12-22T05:37:36.540Z,9.76
2018-12-22T05:38:36.532Z,9.74
2018-12-22T05:39:36.527Z,9.58
2018-12-22T05:40:36.519Z,9.64
2018-12-22T05:41:36.562Z,9.60
2018-12-22T05:42:36.506Z,9.64
2018-12-22T05:43:36.505Z,9.64
2018-12-22T05:44:36.494Z,9.61
2018-12-22T05:45:36.489Z,9.64
2018-12-22T05:46:36.479Z,9.64
2018-12-22T05:47:36.477Z,9.58
2018-12-22T05:48:36.468Z,9.64
2018-12-22T05:49:36.462Z,9.60
2018-12-22T05:50:36.453Z,9.61
2018-12-22T05:51:36.450Z,9.60
2018-12-22T05:52:36.440Z,9.65
2018-12-22T05:53:36.437Z,9.64
2018-12-22T05:54:36.427Z,9.61
2018-12-22T05:55:36.423Z,9.64
2018-12-22T05:56:36.524Z,9.64
2018-12-22T05:57:36.409Z,9.60
2018-12-22T05:58:36.400Z,9.58
2018-12-22T05:59:36.397Z,9.58
2018-12-22T06:00:36.387Z,9.56
2018-12-22T06:01:36.382Z,9.58
2018-12-22T06:02:36.373Z,9.57
2018-12-22T06:03:36.366Z,9.64
2018-12-22T06:04:36.364Z,9.65
2018-12-22T06:05:36.352Z,9.64
2018-12-22T06:06:36.348Z,9.74
2018-12-22T06:07:36.340Z,9.74
2018-12-22T06:08:36.334Z,9.72
2018-12-22T06:09:36.325Z,9.72
2018-12-22T06:10:36.320Z,9.78
2018-12-22T06:11:36.316Z,9.78
2018-12-22T06:12:36.320Z,9.76
2018-12-22T06:13:36.297Z,9.83
2018-12-22T06:14:36.292Z,9.90
2018-12-22T06:15:36.284Z,9.84
2018-12-22T06:16:36.279Z,9.90
2018-12-22T06:17:36.269Z,9.97
2018-12-22T06:18:36.264Z,9.97
2018-12-22T06:19:36.267Z,10.11
2018-12-22T06:20:36.267Z,10.04
2018-12-22T06:21:36.242Z,10.07
2018-12-22T06:22:36.237Z,10.12
2018-12-22T06:23:36.228Z,10.09
2018-12-22T06:24:36.223Z,10.05
2018-12-22T06:25:36.214Z,10.12
2018-12-22T06:26:36.210Z,10.25
2018-12-22T06:27:36.201Z,10.25
2018-12-22T06:28:36.197Z,10.22
2018-12-22T06:29:36.188Z,10.40
2018-12-22T06:30:36.185Z,10.34
2018-12-22T06:31:36.177Z,10.44
2018-12-22T06:32:36.170Z,10.41
2018-12-22T06:33:36.162Z,10.38
2018-12-22T06:34:36.158Z,10.36
2018-12-22T06:35:36.148Z,10.40
2018-12-22T06:36:36.145Z,10.51
2018-12-22T06:37:36.135Z,10.52
2018-12-22T06:38:36.135Z,10.53
2018-12-22T06:39:36.123Z,10.56
2018-12-22T06:40:36.119Z,10.53
2018-12-22T06:41:36.109Z,10.44
2018-12-22T06:42:36.106Z,10.34
2018-12-22T06:43:36.099Z,10.47
2018-12-22T06:44:36.095Z,10.55
2018-12-22T06:45:36.084Z,10.52
2018-12-22T06:46:36.080Z,10.47
2018-12-22T06:47:36.072Z,10.56
2018-12-22T06:48:36.068Z,10.55
2018-12-22T06:49:36.059Z,10.55
2018-12-22T06:50:36.055Z,10.55
2018-12-22T06:51:36.049Z,10.51
2018-12-22T06:52:36.043Z,10.56
2018-12-22T06:53:36.034Z,10.53
2018-12-22T06:54:36.031Z,10.56
2018-12-22T06:55:36.022Z,10.55
2018-12-22T06:56:36.018Z,10.53
2018-12-22T06:57:36.009Z,10.52
2018-12-22T06:58:36.006Z,10.51
2018-12-22T06:59:35.997Z,10.45
2018-12-22T07:00:35.994Z,10.53
2018-12-22T07:01:35.985Z,10.52
2018-12-22T07:02:35.981Z,10.33
2018-12-22T07:03:35.974Z,10.38
2018-12-22T07:04:35.971Z,10.41
2018-12-22T07:05:35.960Z,10.33
2018-12-22T07:06:35.957Z,10.36
2018-12-22T07:07:35.948Z,10.41
2018-12-22T07:08:36.050Z,10.36
2018-12-22T07:09:35.950Z,10.40
2018-12-22T07:10:35.933Z,10.40
2018-12-22T07:11:35.924Z,10.38
2018-12-22T07:12:35.921Z,10.38
2018-12-22T07:13:35.912Z,10.33
2018-12-22T07:14:35.908Z,10.42
2018-12-22T07:15:35.900Z,10.42
2018-12-22T07:16:35.897Z,10.42
2018-12-22T07:17:35.888Z,10.41
2018-12-22T07:18:35.885Z,10.33
2018-12-22T07:19:35.881Z,10.38
2018-12-22T07:20:35.872Z,10.34
2018-12-22T07:21:35.864Z,10.40
2018-12-22T07:22:35.863Z,10.36
2018-12-22T07:23:35.853Z,10.40
2018-12-22T07:24:35.848Z,10.42
2018-12-22T07:25:35.840Z,10.34
2018-12-22T07:26:35.836Z,10.41
2018-12-22T07:27:35.828Z,10.41
2018-12-22T07:28:35.825Z,10.36
2018-12-22T07:29:35.817Z,10.45
2018-12-22T07:30:35.812Z,10.34
2018-12-22T07:31:35.805Z,10.22
2018-12-22T07:32:35.804Z,10.26
2018-12-22T07:33:35.792Z,10.25
2018-12-22T07:34:35.789Z,10.23
2018-12-22T07:35:35.781Z,10.18
2018-12-22T07:36:35.777Z,10.29
2018-12-22T07:37:35.769Z,10.14
2018-12-22T07:38:35.766Z,10.17
2018-12-22T07:39:35.857Z,10.09
2018-12-22T07:40:35.759Z,10.18
2018-12-22T07:41:35.747Z,10.12
2018-12-22T07:42:35.744Z,10.12
2018-12-22T07:43:35.733Z,10.02
2018-12-22T07:44:35.732Z,10.02
2018-12-22T07:45:35.724Z,10.07
2018-12-22T07:46:35.718Z,9.94
2018-12-22T07:47:35.709Z,10.05
2018-12-22T07:48:35.708Z,9.96
2018-12-22T07:49:35.696Z,9.91
2018-12-22T07:50:35.693Z,9.90
2018-12-22T07:51:35.685Z,9.89
2018-12-22T07:52:35.682Z,9.87
2018-12-22T07:53:35.673Z,9.90
2018-12-22T07:54:35.671Z,9.83
2018-12-22T07:55:35.662Z,9.84
2018-12-22T07:56:35.859Z,9.76
2018-12-22T07:57:35.650Z,9.74
2018-12-22T07:58:35.646Z,9.83
2018-12-22T07:59:35.637Z,9.79
2018-12-22T08:00:35.635Z,9.86
2018-12-22T08:01:35.627Z,9.81
2018-12-22T08:02:35.622Z,9.87
2018-12-22T08:03:35.613Z,9.84
2018-12-22T08:04:35.610Z,9.79
2018-12-22T08:05:38.899Z,9.86
2018-12-22T08:06:35.598Z,9.83
2018-12-22T08:07:35.589Z,9.79
2018-12-22T08:08:35.585Z,9.81
2018-12-22T08:09:35.577Z,9.76
2018-12-22T08:10:35.573Z,9.79
2018-12-22T08:11:35.565Z,9.81
2018-12-22T08:12:35.562Z,9.78
2018-12-22T08:13:35.553Z,9.78
2018-12-22T08:14:35.549Z,9.72
2018-12-22T08:15:35.541Z,9.81
2018-12-22T08:16:35.538Z,9.89
2018-12-22T08:17:35.530Z,9.78
2018-12-22T08:18:35.527Z,9.75
2018-12-22T08:19:35.518Z,9.79
2018-12-22T08:20:35.514Z,9.78
2018-12-22T08:21:35.505Z,9.74
2018-12-22T08:22:35.505Z,9.75
2018-12-22T08:23:35.494Z,9.78
2018-12-22T08:24:35.491Z,9.86
2018-12-22T08:25:35.483Z,9.76
2018-12-22T08:26:35.479Z,9.76
2018-12-22T08:27:35.474Z,9.72
2018-12-22T08:28:35.468Z,9.75
2018-12-22T08:29:35.468Z,9.71
2018-12-22T08:30:43.304Z,9.72
2018-12-22T08:31:35.452Z,9.75
2018-12-22T08:32:35.444Z,9.81
2018-12-22T08:33:35.444Z,9.74
2018-12-22T08:34:35.432Z,9.68
2018-12-22T08:35:35.424Z,9.74
2018-12-22T08:36:35.421Z,9.72
2018-12-22T08:37:35.656Z,9.69
2018-12-22T08:38:35.418Z,9.71
2018-12-22T08:39:35.400Z,9.71
2018-12-22T08:40:35.396Z,9.75
2018-12-22T08:41:35.387Z,9.78
2018-12-22T08:42:35.384Z,9.71
2018-12-22T08:43:35.376Z,9.76
2018-12-22T08:44:35.524Z,9.75
2018-12-22T08:45:35.364Z,9.72
2018-12-22T08:46:35.360Z,9.74
2018-12-22T08:47:35.357Z,9.72
2018-12-22T08:48:35.349Z,9.64
2018-12-22T08:49:35.341Z,9.74
2018-12-22T08:50:35.337Z,9.74
2018-12-22T08:51:35.329Z,9.76
2018-12-22T08:52:35.325Z,9.75
2018-12-22T08:53:35.316Z,9.75
2018-12-22T08:54:35.313Z,9.74
2018-12-22T08:55:35.305Z,9.75
2018-12-22T08:56:35.302Z,9.76
2018-12-22T08:57:35.293Z,9.72
2018-12-22T08:58:35.290Z,9.78
2018-12-22T08:59:35.285Z,9.72
2018-12-22T09:00:35.278Z,9.75
2018-12-22T09:01:35.279Z,9.72
2018-12-22T09:02:35.267Z,9.72
2018-12-22T09:03:35.258Z,9.72
2018-12-22T09:04:35.255Z,9.72
2018-12-22T09:05:35.246Z,9.68
2018-12-22T09:06:35.243Z,9.71
2018-12-22T09:07:35.297Z,9.71
2018-12-22T09:08:35.232Z,9.75
2018-12-22T09:09:35.222Z,9.71
2018-12-22T09:10:35.222Z,9.75
2018-12-22T09:11:35.211Z,9.74
2018-12-22T09:12:35.208Z,9.74
2018-12-22T09:13:35.199Z,9.72
2018-12-22T09:14:35.197Z,9.75
2018-12-22T09:15:35.187Z,9.69
2018-12-22T09:16:35.184Z,9.72
2018-12-22T09:17:35.175Z,9.71
2018-12-22T09:18:35.173Z,9.68
2018-12-22T09:19:35.213Z,9.71
2018-12-22T09:20:35.161Z,9.69
2018-12-22T09:21:35.153Z,9.76
2018-12-22T09:22:35.148Z,9.75
2018-12-22T09:23:35.141Z,9.72
2018-12-22T09:24:35.137Z,9.68
2018-12-22T09:25:35.128Z,9.65
2018-12-22T09:26:35.125Z,9.64
2018-12-22T09:27:35.117Z,9.65
2018-12-22T09:28:35.113Z,9.65
2018-12-22T09:29:35.104Z,9.65
2018-12-22T09:30:35.101Z,9.65
2018-12-22T09:31:35.094Z,9.61
2018-12-22T09:32:35.089Z,9.58
2018-12-22T09:33:35.080Z,9.43
2018-12-22T09:34:35.077Z,9.43
2018-12-22T09:35:35.076Z,9.47
2018-12-22T09:36:35.068Z,9.43
2018-12-22T09:37:35.058Z,9.40
2018-12-22T09:38:35.053Z,9.40
2018-12-22T09:39:35.045Z,9.38
2018-12-22T09:40:35.042Z,9.42
2018-12-22T09:41:35.032Z,9.36
2018-12-22T09:42:35.032Z,9.35
2018-12-22T09:43:35.021Z,9.36
2018-12-22T09:44:35.020Z,9.38
2018-12-22T09:45:35.007Z,9.23
2018-12-22T09:46:35.003Z,9.33
2018-12-22T09:47:36.454Z,9.32
2018-12-22T09:48:34.992Z,9.39
2018-12-22T09:49:34.981Z,9.39
2018-12-22T09:50:34.979Z,9.28
2018-12-22T09:51:34.970Z,9.32
2018-12-22T09:52:35.046Z,9.28
2018-12-22T09:53:34.956Z,9.31
2018-12-22T09:54:34.954Z,9.31
2018-12-22T09:55:34.944Z,9.26
2018-12-22T09:56:34.940Z,9.26
2018-12-22T09:57:34.931Z,9.21
2018-12-22T09:58:34.927Z,9.26
2018-12-22T09:59:34.918Z,9.32
2018-12-22T10:00:34.916Z,9.32
2018-12-22T10:01:34.951Z,9.29
2018-12-22T10:02:34.902Z,9.31
2018-12-22T10:03:34.894Z,9.26
2018-12-22T10:04:34.890Z,9.32
2018-12-22T10:05:34.879Z,9.40
2018-12-22T10:06:34.875Z,9.35
2018-12-22T10:07:34.867Z,9.36
2018-12-22T10:08:34.867Z,9.39
2018-12-22T10:09:34.858Z,9.46
2018-12-22T10:10:34.850Z,9.46
2018-12-22T10:11:34.843Z,9.31
2018-12-22T10:12:34.839Z,9.36
2018-12-22T10:13:34.829Z,9.33
2018-12-22T10:14:34.826Z,9.33
2018-12-22T10:15:34.818Z,9.35
2018-12-22T10:16:34.817Z,9.46
2018-12-22T10:17:34.804Z,9.39
2018-12-22T10:18:34.800Z,9.46
2018-12-22T10:19:34.795Z,9.54
2018-12-22T10:20:34.786Z,9.54
2018-12-22T10:21:34.879Z,9.58
2018-12-22T10:22:34.775Z,9.65
2018-12-22T10:23:34.770Z,9.66
2018-12-22T10:24:34.762Z,9.69
2018-12-22T10:25:34.760Z,9.71
2018-12-22T10:26:34.749Z,9.75
2018-12-22T10:27:34.746Z,9.75
2018-12-22T10:28:34.738Z,9.76
2018-12-22T10:29:34.733Z,9.74
2018-12-22T10:30:34.726Z,9.84
2018-12-22T10:31:34.722Z,9.74
2018-12-22T10:32:34.714Z,9.76
2018-12-22T10:33:34.709Z,9.75
2018-12-22T10:34:34.702Z,9.87
2018-12-22T10:35:34.698Z,9.84
2018-12-22T10:36:34.690Z,9.91
2018-12-22T10:37:34.687Z,9.93
2018-12-22T10:38:34.681Z,9.90
2018-12-22T10:39:34.676Z,9.89
2018-12-22T10:40:34.666Z,9.91
2018-12-22T10:41:34.662Z,10.01
2018-12-22T10:42:34.654Z,9.99
2018-12-22T10:43:34.651Z,9.97
2018-12-22T10:44:34.645Z,10.04
2018-12-22T10:45:34.643Z,10.04
2018-12-22T10:46:34.631Z,10.04
2018-12-22T10:47:34.627Z,10.09
2018-12-22T10:48:34.620Z,10.01
2018-12-22T10:49:34.623Z,10.04
2018-12-22T10:50:34.623Z,10.07
2018-12-22T10:51:34.605Z,10.11
2018-12-22T10:52:34.597Z,10.17
2018-12-22T10:53:34.676Z,10.14
2018-12-22T10:54:34.585Z,10.17
2018-12-22T10:55:34.581Z,10.17
2018-12-22T10:56:34.574Z,10.22
2018-12-22T10:57:34.573Z,10.22
2018-12-22T10:58:34.569Z,10.17
2018-12-22T10:59:34.572Z,10.18
2018-12-22T11:00:34.557Z,10.26
2018-12-22T11:01:34.547Z,10.27
2018-12-22T11:02:34.539Z,10.25
2018-12-22T11:03:34.538Z,10.34
2018-12-22T11:04:34.528Z,10.29
2018-12-22T11:05:34.525Z,10.33
2018-12-22T11:06:34.517Z,10.25
2018-12-22T11:07:34.514Z,10.27
2018-12-22T11:08:34.506Z,10.38
2018-12-22T11:09:34.502Z,10.38
2018-12-22T11:10:34.495Z,10.33
2018-12-22T11:11:34.492Z,10.45
2018-12-22T11:12:34.501Z,10.51
2018-12-22T11:13:34.482Z,10.55
2018-12-22T11:14:34.472Z,10.59
2018-12-22T11:15:34.469Z,10.53
2018-12-22T11:16:34.461Z,10.48
2018-12-22T11:17:34.458Z,10.52
2018-12-22T11:18:34.449Z,10.56
2018-12-22T11:19:34.449Z,10.48
2018-12-22T11:20:34.439Z,10.48
2018-12-22T11:21:34.435Z,10.48
2018-12-22T11:22:34.427Z,10.56
2018-12-22T11:23:34.424Z,10.44
2018-12-22T11:24:34.417Z,10.45
2018-12-22T11:25:34.414Z,10.53
2018-12-22T11:26:34.405Z,10.52
2018-12-22T11:27:34.402Z,10.47
2018-12-22T11:28:34.394Z,10.47
2018-12-22T11:29:34.390Z,10.42
2018-12-22T11:30:34.383Z,10.47
2018-12-22T11:31:35.128Z,10.56
2018-12-22T11:32:34.372Z,10.55
2018-12-22T11:33:34.367Z,10.48
2018-12-22T11:34:34.360Z,10.51
2018-12-22T11:35:34.358Z,10.66
2018-12-22T11:36:34.349Z,10.84
2018-12-22T11:37:34.346Z,11.04
2018-12-22T11:38:34.338Z,10.97
2018-12-22T11:39:34.336Z,10.97
2018-12-22T11:40:34.327Z,10.94
2018-12-22T11:41:34.324Z,10.92
2018-12-22T11:42:34.317Z,10.97
2018-12-22T11:43:34.314Z,10.97
2018-12-22T11:44:34.309Z,11.06
2018-12-22T11:45:34.303Z,11.00
2018-12-22T11:46:34.296Z,11.06
2018-12-22T11:47:34.296Z,11.00
2018-12-22T11:48:34.286Z,11.04
2018-12-22T11:49:34.285Z,11.00
2018-12-22T11:50:34.276Z,11.09
2018-12-22T11:51:34.277Z,11.00
2018-12-22T11:52:34.266Z,11.06
2018-12-22T11:53:34.263Z,11.11
2018-12-22T11:54:34.256Z,11.11
2018-12-22T11:55:34.254Z,11.10
2018-12-22T11:56:34.247Z,11.10
2018-12-22T11:57:34.244Z,11.15
2018-12-22T11:58:34.237Z,11.11
2018-12-22T11:59:34.235Z,11.15
2018-12-22T12:00:34.227Z,11.18
2018-12-22T12:01:34.225Z,11.18
2018-12-22T12:02:34.217Z,11.14
2018-12-22T12:03:34.215Z,11.15
2018-12-22T12:04:34.214Z,11.25
2018-12-22T12:05:34.205Z,11.18
2018-12-22T12:06:34.198Z,11.15
2018-12-22T12:07:34.196Z,11.15
2018-12-22T12:08:34.189Z,11.15
2018-12-22T12:09:34.185Z,11.15
2018-12-22T12:10:34.178Z,11.03
2018-12-22T12:11:34.176Z,11.00
2018-12-22T12:12:34.169Z,11.03
2018-12-22T12:13:34.166Z,11.09
2018-12-22T12:14:34.159Z,11.02
2018-12-22T12:15:34.157Z,11.04
2018-12-22T12:16:34.150Z,11.14
2018-12-22T12:17:34.147Z,11.15
2018-12-22T12:18:34.141Z,11.17
2018-12-22T12:19:34.138Z,11.15
2018-12-22T12:20:34.132Z,11.18
2018-12-22T12:21:34.128Z,11.03
2018-12-22T12:22:34.120Z,11.02
2018-12-22T12:23:34.118Z,11.00
2018-12-22T12:24:34.111Z,10.99
2018-12-22T12:25:34.108Z,11.04
2018-12-22T12:26:34.103Z,11.03
2018-12-22T12:27:34.099Z,11.07
2018-12-22T12:28:34.092Z,11.03
2018-12-22T12:29:34.088Z,10.96
2018-12-22T12:30:34.082Z,10.99
2018-12-22T12:31:34.079Z,10.97
2018-12-22T12:32:34.072Z,10.97
2018-12-22T12:33:34.069Z,10.96
2018-12-22T12:34:34.062Z,10.94
2018-12-22T12:35:34.176Z,10.86
2018-12-22T12:36:34.054Z,10.81
2018-12-22T12:37:34.051Z,10.79
2018-12-22T12:38:34.043Z,10.82
2018-12-22T12:39:34.040Z,10.84
2018-12-22T12:40:34.033Z,10.74
2018-12-22T12:41:34.032Z,10.73
2018-12-22T12:42:34.025Z,10.71
2018-12-22T12:43:34.023Z,10.63
2018-12-22T12:44:34.014Z,10.63
2018-12-22T12:45:34.010Z,10.68
2018-12-22T12:46:34.548Z,10.63
2018-12-22T12:47:34.000Z,10.71
2018-12-22T12:48:33.993Z,10.74
2018-12-22T12:49:34.012Z,10.68
2018-12-22T12:50:33.984Z,10.82
2018-12-22T12:51:34.231Z,10.73
2018-12-22T12:52:33.973Z,10.86
2018-12-22T12:53:33.970Z,10.92
2018-12-22T12:54:33.963Z,10.92
2018-12-22T12:55:33.962Z,10.99
2018-12-22T12:56:33.953Z,10.92
2018-12-22T12:57:34.250Z,10.91
2018-12-22T12:58:33.943Z,10.97
2018-12-22T12:59:33.939Z,10.91
2018-12-22T13:00:34.034Z,10.94
2018-12-22T13:01:33.930Z,11.04
2018-12-22T13:02:33.922Z,11.06
2018-12-22T13:03:33.919Z,11.18
2018-12-22T13:04:33.913Z,11.10
2018-12-22T13:05:33.909Z,11.10
2018-12-22T13:06:33.903Z,11.17